Wooster, OH (44691)

10:24 PM EDT on July 30, 2016 (GMT -0400)
Forest Green | | Change Station

Elev 1083 ft 40.82 °N, 81.94 °W | Updated 5 seconds ago

Fog
Fog
69.6 °F
Feels Like 69.6 °F
N
0.0
Wind Variable Wind from NW
Gusts 0.0 mph

Today
High -- | Low -- °F
--% Chance of Precip.
Yesterday
High -- | Low -- °F
Precip. -- in
Pressure 29.97 in
Visibility 0.2 miles
Clouds
Dew Point 69 °F
Humidity 99%
Rainfall 1.80 in
Snow Depth Not available.
6:22 AM 8:45 PM
Waning Crescent, 9% visible
METAR KBJJ 310156Z AUTO 00000KT 1/4SM FG VV002 19/19 A2999 RMK AO2 SLP148 T01940189
Pressure 29.97 in
Visibility 0.2 miles
Clouds
Dew Point 69 °F
Humidity 99%
Rainfall 1.80 in
Snow Depth Not available.
6:22 AM 8:45 PM
Waning Crescent, 9% visible
METAR KBJJ 310156Z AUTO 00000KT 1/4SM FG VV002 19/19 A2999 RMK AO2 SLP148 T01940189

10-Day Weather Forecast

Almanac

Astronomy

Jul. 30, 2016 Rise Set
Actual Time
Civil Twilight
Nautical Twilight
Astronomical Twilight
Moon
Length of Visible Light
Length of Day
Tomorrow will be .
, % of the Moon is Illuminated

Today's Extremes

State Highs State Lows

Community

WunderPhotos

Upload Photos

1,928,713 photos uploaded!

WunderBlog® & News

Nearby

Air Quality

  Air Quality AQ Index Pollutant
Not available.

Snow Depth

Station Depth Elevation

Earthquake Activity

City Distance Mag. Time & Date
Minimum magnitude displayed is 2.5.

Coastal Water Temperatures

Place Temperature

Stations

Nearby Weather Stations

Station Location Temp. Windchill Dew Point Humidity Wind Precip. Elev Updated Type
                   

Watches & Warnings

There are currently no watches in effect.